createdAt,value
2018-02-12T00:00:27.992Z,85.15
2018-02-12T00:03:31.297Z,84.98
2018-02-12T00:06:34.584Z,84.73
2018-02-12T00:09:38.677Z,84.70
2018-02-12T00:12:42.716Z,84.62
2018-02-12T00:15:45.973Z,84.40
2018-02-12T00:18:50.008Z,84.82
2018-02-12T00:21:54.054Z,85.20
2018-02-12T00:24:57.336Z,85.27
2018-02-12T00:28:00.600Z,85.15
2018-02-12T00:31:03.860Z,84.94
2018-02-12T00:34:07.207Z,84.59
2018-02-12T00:37:10.484Z,84.67
2018-02-12T00:40:13.758Z,84.43
2018-02-12T00:43:17.044Z,84.43
2018-02-12T00:46:20.313Z,84.25
2018-02-12T00:49:23.618Z,84.13
2018-02-12T00:52:28.553Z,84.18
2018-02-12T00:55:31.849Z,83.96
2018-02-12T00:58:35.108Z,84.17
2018-02-12T01:01:38.375Z,84.29
2018-02-12T01:04:41.641Z,84.30
2018-02-12T01:07:44.925Z,84.22
2018-02-12T01:10:48.188Z,84.16
2018-02-12T01:13:51.453Z,84.24
2018-02-12T01:16:54.720Z,83.96
2018-02-12T01:19:58.441Z,84.17
2018-02-12T01:23:01.710Z,84.06
2018-02-12T01:26:06.640Z,84.18
2018-02-12T01:29:10.677Z,84.21
2018-02-12T01:32:13.943Z,84.04
2018-02-12T01:35:17.195Z,83.96
2018-02-12T01:38:20.481Z,84.13
2018-02-12T01:41:23.741Z,84.21
2018-02-12T01:44:29.008Z,84.51
2018-02-12T01:47:33.054Z,84.45
2018-02-12T01:50:36.309Z,84.78
2018-02-12T01:53:40.344Z,85.00
2018-02-12T01:56:43.623Z,84.87
2018-02-12T01:59:47.653Z,84.87
2018-02-12T02:02:50.923Z,85.27
2018-02-12T02:05:54.949Z,85.14
2018-02-12T02:09:00.224Z,85.11
2018-02-12T02:12:03.492Z,85.39
2018-02-12T02:15:07.538Z,85.41
2018-02-12T02:18:10.792Z,85.58
2018-02-12T02:21:14.821Z,85.66
2018-02-12T02:24:18.848Z,85.74
2018-02-12T02:27:22.113Z,85.50
2018-02-12T02:30:29.149Z,85.64
2018-02-12T02:33:32.913Z,85.62
2018-02-12T02:36:36.964Z,85.80
2018-02-12T02:39:40.233Z,85.72
2018-02-12T02:42:44.497Z,85.52
2018-02-12T02:45:47.965Z,85.46
2018-02-12T02:48:52.002Z,85.57
2018-02-12T02:51:55.288Z,85.17
2018-02-12T02:54:58.557Z,84.99
2018-02-12T02:58:02.593Z,85.10
2018-02-12T03:01:05.869Z,85.28
2018-02-12T03:04:09.905Z,85.04
2018-02-12T03:07:13.166Z,84.89
2018-02-12T03:10:16.433Z,84.87
2018-02-12T03:13:19.689Z,85.01
2018-02-12T03:16:23.737Z,85.15
2018-02-12T03:19:27.743Z,84.93
2018-02-12T03:22:31.732Z,84.57
2018-02-12T03:25:36.462Z,84.51
2018-02-12T03:28:40.651Z,84.44
2018-02-12T03:31:43.922Z,84.44
2018-02-12T03:34:47.248Z,84.14
2018-02-12T03:37:50.517Z,84.04
2018-02-12T03:40:53.780Z,83.87
2018-02-12T03:43:57.045Z,83.50
2018-02-12T03:47:00.312Z,83.31
2018-02-12T03:50:03.757Z,83.23
2018-02-12T03:53:07.788Z,83.24
2018-02-12T03:56:11.064Z,83.03
2018-02-12T03:59:15.104Z,82.94
2018-02-12T04:02:18.375Z,82.57
2018-02-12T04:05:22.398Z,82.39
2018-02-12T04:08:26.437Z,82.39
2018-02-12T04:11:29.705Z,82.24
2018-02-12T04:14:33.332Z,82.42
2018-02-12T04:17:37.402Z,82.40
2018-02-12T04:20:40.659Z,82.45
2018-02-12T04:23:43.926Z,82.03
2018-02-12T04:26:47.952Z,81.85
2018-02-12T04:29:51.222Z,81.70
2018-02-12T04:32:54.485Z,82.38
2018-02-12T04:35:57.941Z,82.39
2018-02-12T04:39:01.220Z,82.44
2018-02-12T04:42:04.481Z,81.96
2018-02-12T04:45:07.746Z,82.41
2018-02-12T04:48:11.027Z,82.39
2018-02-12T04:51:15.067Z,82.45
2018-02-12T04:54:18.344Z,82.01
2018-02-12T04:57:21.611Z,81.82
2018-02-12T05:00:26.373Z,82.31
2018-02-12T05:03:29.649Z,82.15
2018-02-12T05:06:32.902Z,82.23
2018-02-12T05:09:36.944Z,82.33
2018-02-12T05:12:40.206Z,81.86
2018-02-12T05:15:43.469Z,81.93
2018-02-12T05:18:47.514Z,82.43
2018-02-12T05:21:50.764Z,82.46
2018-02-12T05:24:54.798Z,82.77
2018-02-12T05:27:58.140Z,82.81
2018-02-12T05:31:01.398Z,82.39
2018-02-12T05:34:05.906Z,82.06
2018-02-12T05:37:09.962Z,81.84
2018-02-12T05:40:13.240Z,81.14
2018-02-12T05:43:16.507Z,81.07
2018-02-12T05:46:19.829Z,80.92
2018-02-12T05:49:23.106Z,81.22
2018-02-12T05:52:27.136Z,80.70
2018-02-12T05:55:30.417Z,80.72
2018-02-12T05:58:34.447Z,81.02
2018-02-12T06:01:38.477Z,80.85
2018-02-12T06:04:41.749Z,81.12
2018-02-12T06:07:45.773Z,81.06
2018-02-12T06:11:06.083Z,80.60
2018-02-12T06:14:10.356Z,81.02
2018-02-12T06:17:13.634Z,81.40
2018-02-12T06:20:17.021Z,81.86
2018-02-12T06:23:20.274Z,82.16
2018-02-12T06:26:24.305Z,82.56
2018-02-12T06:29:27.877Z,83.84
2018-02-12T06:32:31.145Z,83.86
2018-02-12T06:35:34.415Z,84.86
2018-02-12T06:38:39.021Z,85.48
2018-02-12T06:41:43.045Z,85.63
2018-02-12T06:44:46.307Z,85.74
2018-02-12T06:47:49.594Z,86.31
2018-02-12T06:50:52.865Z,86.56
2018-02-12T06:53:56.135Z,86.35
2018-02-12T06:56:59.415Z,86.29
2018-02-12T07:00:03.472Z,86.36
2018-02-12T07:03:06.753Z,86.49
2018-02-12T07:06:10.021Z,86.44
2018-02-12T07:09:14.149Z,86.91
2018-02-12T07:12:17.430Z,86.37
2018-02-12T07:15:20.868Z,86.11
2018-02-12T07:18:24.132Z,86.18
2018-02-12T07:21:28.168Z,86.40
2018-02-12T07:24:31.430Z,86.45
2018-02-12T07:27:34.718Z,86.83
2018-02-12T07:30:37.985Z,86.80
2018-02-12T07:33:41.250Z,86.47
2018-02-12T07:36:44.532Z,85.54
2018-02-12T07:39:48.350Z,85.50
2018-02-12T07:42:52.382Z,85.35
2018-02-12T07:45:55.644Z,85.07
2018-02-12T07:48:58.917Z,84.89
2018-02-12T07:52:02.204Z,84.42
2018-02-12T07:55:05.470Z,84.96
2018-02-12T07:58:08.757Z,84.69
2018-02-12T08:01:12.041Z,84.55
2018-02-12T08:04:15.386Z,84.52
2018-02-12T08:07:20.526Z,84.04
2018-02-12T08:10:24.315Z,83.30
2018-02-12T08:13:27.640Z,82.87
2018-02-12T08:16:30.912Z,83.33
2018-02-12T08:19:35.030Z,83.45
2018-02-12T08:22:39.134Z,83.07
2018-02-12T08:25:43.163Z,82.26
2018-02-12T08:28:46.445Z,81.54
2018-02-12T08:31:50.481Z,80.73
2018-02-12T08:34:53.740Z,80.18
2018-02-12T08:37:57.032Z,80.53
2018-02-12T08:41:00.307Z,80.22
2018-02-12T08:44:03.589Z,81.03
2018-02-12T08:47:06.905Z,80.16
2018-02-12T08:50:10.210Z,81.13
2018-02-12T08:53:13.457Z,81.21
2018-02-12T08:56:16.747Z,81.49
2018-02-12T08:59:20.029Z,79.93
2018-02-12T09:02:24.059Z,81.07
2018-02-12T09:05:28.096Z,80.58
2018-02-12T09:08:31.451Z,79.35
2018-02-12T09:11:35.520Z,78.51
2018-02-12T09:14:38.801Z,78.89
2018-02-12T09:17:42.066Z,79.27
2018-02-12T09:20:45.370Z,78.52
2018-02-12T09:23:48.605Z,78.33
2018-02-12T09:26:51.902Z,77.46
2018-02-12T09:29:55.191Z,76.94
2018-02-12T09:32:58.461Z,76.11
2018-02-12T09:36:02.517Z,75.74
2018-02-12T09:39:05.882Z,75.90
2018-02-12T09:42:09.913Z,75.10
2018-02-12T09:45:14.432Z,74.42
2018-02-12T09:48:17.690Z,74.88
2018-02-12T09:51:20.972Z,72.77
2018-02-12T09:54:24.232Z,72.83
2018-02-12T09:57:27.505Z,71.95
2018-02-12T10:00:31.540Z,71.91
2018-02-12T10:03:35.243Z,73.36
2018-02-12T10:06:39.463Z,71.23
2018-02-12T10:09:42.721Z,71.21
2018-02-12T10:12:45.985Z,69.38
2018-02-12T10:15:49.254Z,71.04
2018-02-12T10:18:52.508Z,67.13
2018-02-12T10:21:55.786Z,68.44
2018-02-12T10:24:59.057Z,70.70
2018-02-12T10:28:02.393Z,67.47
2018-02-12T10:31:06.465Z,68.67
2018-02-12T10:34:09.785Z,67.25
2018-02-12T10:37:13.063Z,69.24
2018-02-12T10:40:16.558Z,70.29
2018-02-12T10:43:19.815Z,69.55
2018-02-12T10:46:23.074Z,70.30
2018-02-12T10:49:26.737Z,68.27
2018-02-12T10:52:30.786Z,70.39
2018-02-12T10:55:34.072Z,69.13
2018-02-12T10:58:37.358Z,68.90
2018-02-12T11:01:40.629Z,68.73
2018-02-12T11:04:43.895Z,70.24
2018-02-12T11:07:48.386Z,68.65
2018-02-12T11:10:51.671Z,70.23
2018-02-12T11:13:55.712Z,71.04
2018-02-12T11:16:58.988Z,71.34
2018-02-12T11:20:02.259Z,70.82
2018-02-12T11:23:05.534Z,69.62
2018-02-12T11:26:08.805Z,68.50
2018-02-12T11:29:12.072Z,69.08
2018-02-12T11:32:15.333Z,69.45
2018-02-12T11:35:18.830Z,71.05
2018-02-12T11:38:22.109Z,72.53
2018-02-12T11:41:25.371Z,72.18
2018-02-12T11:44:28.628Z,71.23
2018-02-12T11:47:31.900Z,70.05
2018-02-12T11:50:35.208Z,70.73
2018-02-12T11:53:38.494Z,71.55
2018-02-12T11:56:41.793Z,71.52
2018-02-12T11:59:45.097Z,69.44
2018-02-12T12:02:49.581Z,68.01
2018-02-12T12:05:53.004Z,68.02
2018-02-12T12:08:56.483Z,68.46
2018-02-12T12:11:59.918Z,67.66
2018-02-12T12:15:03.264Z,68.50
2018-02-12T12:18:07.292Z,69.17
2018-02-12T12:21:10.588Z,68.12
2018-02-12T12:24:13.853Z,69.02
2018-02-12T12:27:17.126Z,68.97
2018-02-12T12:30:21.665Z,69.20
2018-02-12T12:33:24.918Z,67.76
2018-02-12T12:36:28.179Z,68.95
2018-02-12T12:39:31.452Z,67.77
2018-02-12T12:42:34.728Z,68.46
2018-02-12T12:45:37.997Z,69.30
2018-02-12T12:48:42.059Z,69.80
2018-02-12T12:51:45.340Z,67.55
2018-02-12T12:54:48.789Z,66.45
2018-02-12T12:57:52.371Z,68.19
2018-02-12T13:00:55.637Z,67.61
2018-02-12T13:03:58.901Z,68.28
2018-02-12T13:07:02.963Z,68.28
2018-02-12T13:10:06.361Z,68.22
2018-02-12T13:13:09.636Z,68.26
2018-02-12T13:16:12.914Z,68.54
2018-02-12T13:19:16.986Z,66.98
2018-02-12T13:22:20.263Z,66.05
2018-02-12T13:25:23.538Z,66.38
2018-02-12T13:28:26.877Z,66.45
2018-02-12T13:31:30.909Z,66.78
2018-02-12T13:34:34.288Z,65.59
2018-02-12T13:37:37.584Z,66.59
2018-02-12T13:40:40.851Z,66.36
2018-02-12T13:43:44.124Z,67.07
2018-02-12T13:46:48.167Z,66.31
2018-02-12T13:49:51.447Z,65.69
2018-02-12T13:52:55.690Z,62.64
2018-02-12T13:55:58.974Z,64.17
2018-02-12T13:59:02.244Z,63.77
2018-02-12T14:02:06.297Z,60.89
2018-02-12T14:05:09.569Z,61.26
2018-02-12T14:08:13.614Z,61.07
2018-02-12T14:11:16.889Z,63.95
2018-02-12T14:14:20.173Z,62.30
2018-02-12T14:17:24.430Z,63.17
2018-02-12T14:20:27.989Z,63.77
2018-02-12T14:23:31.247Z,74.95
2018-02-12T14:26:34.575Z,75.61
2018-02-12T14:29:37.840Z,74.00
2018-02-12T14:32:41.122Z,72.06
2018-02-12T14:35:44.388Z,71.28
2018-02-12T14:38:48.416Z,71.59
2018-02-12T14:41:51.689Z,72.10
2018-02-12T14:44:55.774Z,71.80
2018-02-12T14:47:59.358Z,71.90
2018-02-12T14:51:02.650Z,71.31
2018-02-12T14:54:05.937Z,71.13
2018-02-12T14:57:09.338Z,72.00
2018-02-12T15:00:12.715Z,71.44
2018-02-12T15:03:16.750Z,72.23
2018-02-12T15:06:20.028Z,71.38
2018-02-12T15:09:25.415Z,71.69
2018-02-12T15:12:28.875Z,71.05
2018-02-12T15:15:32.926Z,71.73
2018-02-12T15:18:36.314Z,72.29
2018-02-12T15:21:39.592Z,72.71
2018-02-12T15:24:42.879Z,72.24
2018-02-12T15:27:46.946Z,72.75
2018-02-12T15:30:50.217Z,73.14
2018-02-12T15:33:53.481Z,74.07
2018-02-12T15:36:56.745Z,72.83
2018-02-12T15:40:00.258Z,73.69
2018-02-12T15:43:03.533Z,73.31
2018-02-12T15:46:06.794Z,73.21
2018-02-12T15:49:10.085Z,72.59
2018-02-12T15:52:14.125Z,72.98
2018-02-12T15:55:17.394Z,73.04
2018-02-12T15:58:21.417Z,73.18
2018-02-12T16:01:25.991Z,73.22
2018-02-12T16:04:29.279Z,73.62
2018-02-12T16:07:32.537Z,74.27
2018-02-12T16:10:35.821Z,75.11
2018-02-12T16:13:39.838Z,74.91
2018-02-12T16:16:43.890Z,75.41
2018-02-12T16:19:47.197Z,75.92
2018-02-12T16:22:50.456Z,75.92
2018-02-12T16:25:53.730Z,76.05
2018-02-12T16:28:57.010Z,76.63
2018-02-12T16:32:00.283Z,76.52
2018-02-12T16:35:03.564Z,77.23
2018-02-12T16:38:06.945Z,77.28
2018-02-12T16:41:10.990Z,77.51
2018-02-12T16:44:14.272Z,78.10
2018-02-12T16:47:17.701Z,78.00
2018-02-12T16:50:20.965Z,78.07
2018-02-12T16:53:24.332Z,78.19
2018-02-12T16:56:27.606Z,78.53
2018-02-12T16:59:31.982Z,78.27
2018-02-12T17:02:35.268Z,78.56
2018-02-12T17:05:39.294Z,78.83
2018-02-12T17:08:42.580Z,78.68
2018-02-12T17:11:46.632Z,78.95
2018-02-12T17:14:49.985Z,78.88
2018-02-12T17:17:53.521Z,79.10
2018-02-12T17:20:58.577Z,78.83
2018-02-12T17:24:01.856Z,78.94
2018-02-12T17:27:05.166Z,78.78
2018-02-12T17:30:08.446Z,79.56
2018-02-12T17:33:11.718Z,82.58
2018-02-12T17:36:15.929Z,83.93
2018-02-12T17:39:19.345Z,83.42
2018-02-12T17:42:23.399Z,83.81
2018-02-12T17:45:26.726Z,82.41
2018-02-12T17:48:30.098Z,82.99
2018-02-12T17:51:33.513Z,82.78
2018-02-12T17:54:37.166Z,82.24
2018-02-12T17:57:40.792Z,81.57
2018-02-12T18:00:44.717Z,81.33
2018-02-12T18:03:50.258Z,81.52
2018-02-12T18:06:53.841Z,81.29
2018-02-12T18:09:57.648Z,81.56
2018-02-12T18:13:01.271Z,82.12
2018-02-12T18:16:05.127Z,81.88
2018-02-12T18:19:09.514Z,82.06
2018-02-12T18:22:13.155Z,82.19
2018-02-12T18:25:16.718Z,82.02
2018-02-12T18:28:21.848Z,81.87
2018-02-12T18:31:25.297Z,81.96
2018-02-12T18:34:29.688Z,82.66
2018-02-12T18:37:34.112Z,82.68
2018-02-12T18:40:37.715Z,82.51
2018-02-12T18:43:41.141Z,82.83
2018-02-12T18:46:45.701Z,82.41
2018-02-12T18:49:50.259Z,82.41
2018-02-12T18:52:53.887Z,82.06
2018-02-12T18:55:57.442Z,81.55
2018-02-12T18:59:01.096Z,81.49
2018-02-12T19:02:05.527Z,81.06
2018-02-12T19:05:10.084Z,80.77
2018-02-12T19:08:14.328Z,80.90
2018-02-12T19:11:17.981Z,80.33
2018-02-12T19:14:21.627Z,79.88
2018-02-12T19:17:25.141Z,80.53
2018-02-12T19:20:28.954Z,80.44
2018-02-12T19:23:32.644Z,81.28
2018-02-12T19:26:35.945Z,82.04
2018-02-12T19:29:40.121Z,83.15
2018-02-12T19:32:43.400Z,83.69
2018-02-12T19:35:46.739Z,83.93
2018-02-12T19:38:50.073Z,83.88
2018-02-12T19:41:53.430Z,83.43
2018-02-12T19:44:56.697Z,82.35
2018-02-12T19:48:00.042Z,81.65
2018-02-12T19:51:03.325Z,81.96
2018-02-12T19:54:06.605Z,81.50
2018-02-12T19:57:09.875Z,81.10
2018-02-12T20:00:13.188Z,80.86
2018-02-12T20:03:16.483Z,80.97
2018-02-12T20:06:19.769Z,80.68
2018-02-12T20:09:23.057Z,80.58
2018-02-12T20:12:26.316Z,80.12
2018-02-12T20:15:29.639Z,80.33
2018-02-12T20:18:33.673Z,80.70
2018-02-12T20:21:37.253Z,80.79
2018-02-12T20:24:41.308Z,81.44
2018-02-12T20:27:44.577Z,82.04
2018-02-12T20:30:47.937Z,82.50
2018-02-12T20:33:51.209Z,81.57
2018-02-12T20:36:55.253Z,82.13
2018-02-12T20:39:58.551Z,82.25
2018-02-12T20:43:01.841Z,81.61
2018-02-12T20:46:05.125Z,80.97
2018-02-12T20:49:08.418Z,81.34
2018-02-12T20:52:11.698Z,80.90
2018-02-12T20:55:14.987Z,81.56
2018-02-12T20:58:19.348Z,80.91
2018-02-12T21:01:22.632Z,81.04
2018-02-12T21:04:26.726Z,80.69
2018-02-12T21:07:30.044Z,81.07
2018-02-12T21:10:51.972Z,80.71
2018-02-12T21:13:57.660Z,80.84
2018-02-12T21:17:01.197Z,81.03
2018-02-12T21:20:04.522Z,80.72
2018-02-12T21:23:07.791Z,80.78
2018-02-12T21:26:11.833Z,80.01
2018-02-12T21:29:15.118Z,79.97
2018-02-12T21:32:18.414Z,79.75
2018-02-12T21:35:21.707Z,79.80
2018-02-12T21:38:25.041Z,80.02
2018-02-12T21:41:28.455Z,79.95
2018-02-12T21:44:31.804Z,80.35
2018-02-12T21:47:35.153Z,80.04
2018-02-12T21:50:41.190Z,80.35
2018-02-12T21:53:44.470Z,80.75
2018-02-12T21:56:47.765Z,80.57
2018-02-12T21:59:51.058Z,80.25
2018-02-12T22:02:54.339Z,80.73
2018-02-12T22:05:58.446Z,80.63
2018-02-12T22:09:02.503Z,79.94
2018-02-12T22:12:05.873Z,80.20
2018-02-12T22:15:09.175Z,80.60
2018-02-12T22:18:13.212Z,80.19
2018-02-12T22:21:16.483Z,80.29
2018-02-12T22:24:20.516Z,80.48
2018-02-12T22:27:23.793Z,80.15
2018-02-12T22:30:27.833Z,80.97
2018-02-12T22:33:31.311Z,80.31
2018-02-12T22:36:35.348Z,80.53
2018-02-12T22:39:39.200Z,80.16
2018-02-12T22:42:43.405Z,80.09
2018-02-12T22:45:46.768Z,79.38
2018-02-12T22:48:50.040Z,79.65
2018-02-12T22:51:53.321Z,79.26
2018-02-12T22:54:56.595Z,79.12
2018-02-12T22:57:59.872Z,79.15
2018-02-12T23:01:03.249Z,78.97
2018-02-12T23:04:07.281Z,79.45
2018-02-12T23:07:10.625Z,79.99
2018-02-12T23:10:13.901Z,79.67
2018-02-12T23:13:17.193Z,79.55
2018-02-12T23:16:20.469Z,79.69
2018-02-12T23:19:23.751Z,79.37
2018-02-12T23:22:27.801Z,80.24
2018-02-12T23:25:31.081Z,79.79
2018-02-12T23:28:34.346Z,80.79
2018-02-12T23:31:38.439Z,81.23
2018-02-12T23:34:42.540Z,80.72
2018-02-12T23:37:45.861Z,79.65
2018-02-12T23:40:49.139Z,79.55
2018-02-12T23:43:52.485Z,79.36
2018-02-12T23:46:55.870Z,80.16
2018-02-12T23:49:59.141Z,80.33
2018-02-12T23:53:02.413Z,80.37
2018-02-12T23:56:05.882Z,81.75
2018-02-12T23:59:09.944Z,80.71
